Terminal Aerodrome Forecast
Issued by NWS

Home | Current Version | Previous Version | Text Only | Print | Product List | Glossary Off
Versions: 1 2 3 4 5 6 7 8 9 10 11 12 13 14 15 16 17 18 19 20 21 22

000
FTUS43 KTOP 311100
TAFMHK
TAF
KMHK 311134Z 3112/0112 19007KT P6SM VCTS BKN120CB
      TEMPO 3114/3116 6SM -TSRA SCT050CB BKN100
     FM311600 19018G29KT P6SM FEW050
     FM010200 17013G22KT 4SM TSRA BKN050CB
     FM010700 36006KT P6SM SCT150=

USA.gov is the U.S. government's official web portal to all federal, state and local government web resources and services.